Main page
METAR-TAF:

METAR-TAF

Airports :

Havana, Cuba

José Martí International Airport

latitude: 22-59N, longitude: 082-24W, elevation: 59 m

Current weather observation

The report was made 24 minutes ago, at 00:55 UTC
Wind 7 kt from the East
Temperature 23°C
Humidity 73%
Pressure 1015 hPa
Visibility: 9000 m
Few clouds at a height of 3000 ft

METAR: MUHA 290055Z 08007KT 9000 FEW030 23/18 Q1015

Time: 21:19 (01:19 UTC)

Forecast

The report was made 8 hours and 19 minutes ago, at 17:00 UTC
Forecast valid from 28 at 18 UTC to 29 at 18 UTC
Wind 3 kt from variable directions
Visibility: 9000 m
Scattered clouds at a height of 3000 ft
Becoming
from 28 at 21 UTC to 28 at 22 UTC
Wind 5 kt from the East
Becoming
from 29 at 01 UTC to 29 at 03 UTC
Wind 3 kt from variable directions
Few clouds at a height of 3000 ft
Becoming
from 29 at 14 UTC to 29 at 15 UTC
Wind 5 kt from the East/Southeast

TAF: MUHA 281700Z 2818/2918 VRB03KT 9000 SCT030 BECMG 2821/2822 09005KT BECMG 2901/2903 VRB03KT FEW030 BECMG 2914/2915 12005KT

Weather observations and forecasts of more than 4000 airports (METAR and TAF reports).

The available stations are represented by yellow and red dots on the map.

Hover mouse over dot to see the name of the station.

Then click to see weather observations and forecasts.

To change the map : click on the green buttons with a black cross to zoom in, on the green button with a dash to zoom out, or on the green arrows for adjacent maps.


METAR-TAF: